createdAt,value
2023-05-23T00:01:51.061Z,100591.63
2023-05-23T00:04:18.481Z,100592.47
2023-05-23T00:06:46.186Z,100593.72
2023-05-23T00:09:14.523Z,100587.44
2023-05-23T00:11:43.257Z,100584.50
2023-05-23T00:14:11.258Z,100541.72
2023-05-23T00:16:38.690Z,100590.09
2023-05-23T00:19:06.121Z,100588.41
2023-05-23T00:21:34.253Z,100573.91
2023-05-23T00:24:01.711Z,100584.22
2023-05-23T00:26:29.152Z,100537.34
2023-05-23T00:28:59.548Z,100596.34
2023-05-23T00:31:26.910Z,100586.94
2023-05-23T00:33:54.507Z,100590.97
2023-05-23T00:36:22.157Z,100535.63
2023-05-23T00:38:49.541Z,100598.75
2023-05-23T00:41:17.009Z,100588.59
2023-05-23T00:43:44.753Z,100588.66
2023-05-23T00:46:14.638Z,100591.50
2023-05-23T00:48:42.773Z,100590.19
2023-05-23T00:51:10.504Z,100573.34
2023-05-23T00:53:37.852Z,100510.03
2023-05-23T00:56:05.529Z,100587.97
2023-05-23T00:58:33.277Z,100594.31
2023-05-23T01:01:00.876Z,100593.44
2023-05-23T01:03:29.799Z,100588.34
2023-05-23T01:05:58.326Z,100588.25
2023-05-23T01:08:25.620Z,100578.66
2023-05-23T01:10:53.577Z,100567.75
2023-05-23T01:13:34.626Z,100592.22
2023-05-23T01:16:07.592Z,100600.09
2023-05-23T01:18:39.953Z,100602.56
2023-05-23T01:21:11.934Z,100605.22
2023-05-23T01:24:11.505Z,100609.66
2023-05-23T01:27:06.165Z,100597.91
2023-05-23T01:29:38.766Z,100609.88
2023-05-23T01:32:10.810Z,100611.91
2023-05-23T01:34:40.071Z,100612.13
2023-05-23T01:37:09.704Z,100612.97
2023-05-23T01:39:37.560Z,100614.00
2023-05-23T01:42:05.820Z,100616.03
2023-05-23T01:44:36.599Z,100607.69
2023-05-23T01:47:05.952Z,100612.97
2023-05-23T01:49:35.452Z,100635.91
2023-05-23T01:52:02.892Z,100637.78
2023-05-23T01:54:31.404Z,100643.63
2023-05-23T01:57:00.237Z,100642.94
2023-05-23T01:59:27.661Z,100643.63
2023-05-23T02:01:56.664Z,100639.94
2023-05-23T02:04:23.963Z,100630.72
2023-05-23T02:06:51.480Z,100618.66
2023-05-23T02:09:19.022Z,100634.91
2023-05-23T02:11:46.565Z,100640.03
2023-05-23T02:14:13.937Z,100632.84
2023-05-23T02:16:41.532Z,100552.88
2023-05-23T02:19:10.520Z,100627.53
2023-05-23T02:21:38.381Z,100628.19
2023-05-23T02:24:06.077Z,100624.59
2023-05-23T02:26:33.570Z,100625.09
2023-05-23T02:29:00.895Z,100626.13
2023-05-23T02:31:28.298Z,100621.41
2023-05-23T02:33:55.852Z,100629.34
2023-05-23T02:36:24.526Z,100636.47
2023-05-23T02:38:52.068Z,100637.66
2023-05-23T02:41:20.940Z,100589.09
2023-05-23T02:43:48.301Z,100654.41
2023-05-23T02:46:15.884Z,100599.94
2023-05-23T02:48:43.358Z,100639.75
2023-05-23T02:51:10.759Z,100641.34
2023-05-23T02:53:39.884Z,100641.28
2023-05-23T02:56:07.852Z,100643.56
2023-05-23T02:58:35.461Z,100641.78
2023-05-23T03:01:07.970Z,100600.00
2023-05-23T03:03:36.132Z,100609.97
2023-05-23T03:06:03.825Z,100655.94
2023-05-23T03:08:32.136Z,100650.19
2023-05-23T03:11:01.242Z,100649.91
2023-05-23T03:13:28.948Z,100649.56
2023-05-23T03:15:56.440Z,100640.47
2023-05-23T03:18:24.023Z,100629.25
2023-05-23T03:20:51.539Z,100630.09
2023-05-23T03:23:18.962Z,100613.16
2023-05-23T03:25:46.796Z,100598.94
2023-05-23T03:28:15.825Z,100631.41
2023-05-23T03:30:43.533Z,100634.09
2023-05-23T03:33:10.891Z,100634.56
2023-05-23T03:35:38.400Z,100607.34
2023-05-23T03:38:05.906Z,100601.75
2023-05-23T03:40:33.662Z,100565.22
2023-05-23T03:43:08.999Z,100543.13
2023-05-23T03:45:38.094Z,100634.66
2023-05-23T03:48:05.985Z,100637.38
2023-05-23T03:50:33.932Z,100635.50
2023-05-23T03:53:01.486Z,100636.09
2023-05-23T03:55:28.937Z,100640.94
2023-05-23T03:57:56.372Z,100628.03
2023-05-23T04:00:23.995Z,100638.44
2023-05-23T04:02:53.291Z,100644.34
2023-05-23T04:05:20.858Z,100635.31
2023-05-23T04:07:48.422Z,100641.84
2023-05-23T04:10:15.839Z,100637.00
2023-05-23T04:12:44.053Z,100643.75
2023-05-23T04:15:11.766Z,100589.41
2023-05-23T04:17:39.337Z,100637.09
2023-05-23T04:20:10.188Z,100637.09
2023-05-23T04:22:37.853Z,100634.44
2023-05-23T04:25:06.300Z,100616.88
2023-05-23T04:27:34.014Z,100620.56
2023-05-23T04:30:01.825Z,100626.41
2023-05-23T04:32:29.100Z,100603.34
2023-05-23T04:34:56.622Z,100623.44
2023-05-23T04:37:27.898Z,100621.16
2023-05-23T04:39:55.402Z,100618.84
2023-05-23T04:42:22.797Z,100587.38
2023-05-23T04:44:50.397Z,100620.34
2023-05-23T04:47:18.028Z,100619.91
2023-05-23T04:49:45.795Z,100629.44
2023-05-23T04:52:13.311Z,100633.91
2023-05-23T04:54:42.048Z,100638.19
2023-05-23T04:57:09.663Z,100637.22
2023-05-23T04:59:37.100Z,100649.38
2023-05-23T05:02:05.560Z,100649.19
2023-05-23T05:04:33.873Z,100644.97
2023-05-23T05:07:01.435Z,100629.66
2023-05-23T05:09:28.660Z,100648.78
2023-05-23T05:11:57.853Z,100628.66
2023-05-23T05:14:26.115Z,100641.09
2023-05-23T05:16:53.709Z,100643.25
2023-05-23T05:19:21.278Z,100598.25
2023-05-23T05:21:48.778Z,100618.06
2023-05-23T05:24:16.155Z,100617.84
2023-05-23T05:26:43.764Z,100614.56
2023-05-23T05:29:12.573Z,100628.78
2023-05-23T05:31:39.807Z,100622.34
2023-05-23T05:34:07.325Z,100605.97
2023-05-23T05:36:34.921Z,100623.00
2023-05-23T05:39:02.412Z,100623.09
2023-05-23T05:41:29.959Z,100591.59
2023-05-23T05:43:57.522Z,100633.03
2023-05-23T05:46:26.392Z,100628.88
2023-05-23T05:48:54.526Z,100641.00
2023-05-23T05:51:22.137Z,100625.59
2023-05-23T05:53:49.565Z,100623.03
2023-05-23T05:56:17.162Z,100633.44
2023-05-23T05:58:44.753Z,100633.91
2023-05-23T06:01:11.997Z,100640.06
2023-05-23T06:03:41.098Z,100633.56
2023-05-23T06:06:08.835Z,100645.63
2023-05-23T06:08:36.279Z,100640.72
2023-05-23T06:11:03.871Z,100634.31
2023-05-23T06:13:32.020Z,100590.13
2023-05-23T06:15:59.368Z,100609.28
2023-05-23T06:18:26.888Z,100561.47
2023-05-23T06:20:56.322Z,100632.78
2023-05-23T06:23:23.812Z,100590.22
2023-05-23T06:25:51.424Z,100548.28
2023-05-23T06:28:19.071Z,100580.50
2023-05-23T06:30:46.356Z,100633.16
2023-05-23T06:33:13.931Z,100642.41
2023-05-23T06:35:41.354Z,100627.53
2023-05-23T06:38:10.105Z,100624.56
2023-05-23T06:40:37.777Z,100615.56
2023-05-23T06:43:05.127Z,100609.75
2023-05-23T06:45:32.587Z,100612.59
2023-05-23T06:48:00.171Z,100607.97
2023-05-23T06:50:27.744Z,100611.13
2023-05-23T06:52:55.037Z,100616.06
2023-05-23T06:55:24.063Z,100569.38
2023-05-23T06:57:51.492Z,100598.94
2023-05-23T07:00:19.695Z,100572.84
2023-05-23T07:02:48.028Z,100608.66
2023-05-23T07:05:15.978Z,100593.75
2023-05-23T07:07:43.862Z,100582.19
2023-05-23T07:10:11.600Z,100600.63
2023-05-23T07:12:40.790Z,100615.41
2023-05-23T07:15:09.285Z,100606.28
2023-05-23T07:17:36.932Z,100592.25
2023-05-23T07:20:05.119Z,100600.75
2023-05-23T07:22:32.845Z,100607.16
2023-05-23T07:25:00.355Z,100607.88
2023-05-23T07:27:29.180Z,100608.84
2023-05-23T07:29:57.958Z,100600.69
2023-05-23T07:32:25.469Z,100606.78
2023-05-23T07:34:53.134Z,100600.00
2023-05-23T07:37:20.627Z,100584.63
2023-05-23T07:39:48.137Z,100574.97
2023-05-23T07:42:15.612Z,100597.75
2023-05-23T07:44:42.860Z,100573.19
2023-05-23T07:47:11.817Z,100604.91
2023-05-23T07:49:39.226Z,100582.16
2023-05-23T07:52:06.520Z,100572.22
2023-05-23T07:54:34.050Z,100587.31
2023-05-23T07:57:01.486Z,100581.94
2023-05-23T07:59:28.782Z,100550.41
2023-05-23T08:01:56.562Z,100570.63
2023-05-23T08:04:25.420Z,100567.25
2023-05-23T08:07:05.009Z,100586.63
2023-05-23T08:09:33.824Z,100561.56
2023-05-23T08:12:01.238Z,100548.50
2023-05-23T08:14:38.700Z,100584.06
2023-05-23T08:17:16.891Z,100570.00
2023-05-23T08:19:45.795Z,100569.81
2023-05-23T08:22:13.476Z,100574.00
2023-05-23T08:24:41.102Z,100565.22
2023-05-23T08:27:08.485Z,100560.63
2023-05-23T08:29:36.015Z,100566.53
2023-05-23T08:32:03.941Z,100504.66
2023-05-23T08:34:31.892Z,100533.81
2023-05-23T08:37:00.766Z,100522.47
2023-05-23T08:39:28.517Z,100561.69
2023-05-23T08:41:56.414Z,100554.06
2023-05-23T08:44:24.218Z,100549.47
2023-05-23T08:46:54.086Z,100558.75
2023-05-23T08:49:23.119Z,100535.78
2023-05-23T08:51:52.455Z,100551.69
2023-05-23T08:54:21.855Z,100548.31
2023-05-23T08:56:49.399Z,100527.91
2023-05-23T08:59:17.234Z,100514.19
2023-05-23T09:01:45.878Z,100547.63
2023-05-23T09:04:13.267Z,100501.28
2023-05-23T09:06:40.662Z,100536.72
2023-05-23T09:09:08.372Z,100533.19
2023-05-23T09:11:37.432Z,100531.06
2023-05-23T09:14:05.296Z,100530.97
2023-05-23T09:16:34.123Z,100526.91
2023-05-23T09:19:10.871Z,100534.94
2023-05-23T09:21:41.863Z,100513.56
2023-05-23T09:24:09.219Z,100533.31
2023-05-23T09:26:38.401Z,100514.97
2023-05-23T09:29:06.877Z,100528.75
2023-05-23T09:31:34.691Z,100501.88
2023-05-23T09:34:02.160Z,100523.63
2023-05-23T09:36:30.556Z,100524.53
2023-05-23T09:39:03.287Z,100520.44
2023-05-23T09:41:33.367Z,100505.50
2023-05-23T09:44:06.589Z,100526.00
2023-05-23T09:46:36.407Z,100530.97
2023-05-23T09:49:14.852Z,100526.22
2023-05-23T09:51:42.427Z,100523.72
2023-05-23T09:54:09.784Z,100529.81
2023-05-23T09:56:42.364Z,100519.13
2023-05-23T09:59:12.905Z,100525.84
2023-05-23T10:01:42.626Z,100488.91
2023-05-23T10:04:10.477Z,100528.41
2023-05-23T10:06:41.974Z,100496.81
2023-05-23T10:09:14.101Z,100516.22
2023-05-23T10:12:36.565Z,100498.50
2023-05-23T10:15:07.986Z,100499.59
2023-05-23T10:17:43.065Z,100492.38
2023-05-23T10:20:12.044Z,100483.59
2023-05-23T10:22:40.257Z,100498.78
2023-05-23T10:25:08.400Z,100464.94
2023-05-23T10:27:36.176Z,100491.25
2023-05-23T10:30:05.853Z,100455.50
2023-05-23T10:32:34.656Z,100447.28
2023-05-23T10:35:09.980Z,100482.25
2023-05-23T10:37:45.132Z,100479.34
2023-05-23T10:40:22.093Z,100447.00
2023-05-23T10:42:56.373Z,100478.75
2023-05-23T10:45:25.291Z,100458.53
2023-05-23T10:47:53.755Z,100473.13
2023-05-23T10:50:35.407Z,100477.59
2023-05-23T10:53:04.485Z,100456.69
2023-05-23T10:55:33.210Z,100492.88
2023-05-23T10:58:10.949Z,100466.56
2023-05-23T11:00:47.480Z,100486.38
2023-05-23T11:03:17.418Z,100448.19
2023-05-23T11:05:52.845Z,100449.22
2023-05-23T11:08:21.217Z,100474.31
2023-05-23T11:10:56.644Z,100472.63
2023-05-23T11:13:24.572Z,100474.19
2023-05-23T11:15:53.489Z,100456.19
2023-05-23T11:18:24.899Z,100480.72
2023-05-23T11:20:54.460Z,100482.56
2023-05-23T11:23:23.552Z,100468.72
2023-05-23T11:25:53.170Z,100449.38
2023-05-23T11:28:21.705Z,100479.50
2023-05-23T11:30:49.583Z,100485.78
2023-05-23T11:33:19.085Z,100480.22
2023-05-23T11:35:48.357Z,100479.16
2023-05-23T11:38:16.779Z,100462.59
2023-05-23T11:40:45.982Z,100466.78
2023-05-23T11:43:15.253Z,100483.88
2023-05-23T11:45:48.448Z,100420.84
2023-05-23T11:48:18.343Z,100459.13
2023-05-23T11:50:48.115Z,100482.44
2023-05-23T11:53:16.615Z,100458.53
2023-05-23T11:55:49.844Z,100509.56
2023-05-23T11:58:18.612Z,100557.13
2023-05-23T12:00:46.611Z,100552.84
2023-05-23T12:03:14.088Z,100487.31
2023-05-23T12:05:45.170Z,100515.88
2023-05-23T12:08:13.597Z,100689.84
2023-05-23T12:10:50.363Z,100716.22
2023-05-23T12:13:18.778Z,100684.53
2023-05-23T12:15:47.028Z,100652.88
2023-05-23T12:18:16.734Z,100659.50
2023-05-23T12:20:45.989Z,100694.22
2023-05-23T12:23:19.075Z,100706.75
2023-05-23T12:25:50.731Z,100713.00
2023-05-23T12:28:18.934Z,100730.50
2023-05-23T12:30:46.780Z,100724.41
2023-05-23T12:33:14.651Z,100752.94
2023-05-23T12:35:47.159Z,100733.88
2023-05-23T12:38:20.266Z,100724.03
2023-05-23T12:40:48.019Z,100719.00
2023-05-23T12:43:16.119Z,100739.53
2023-05-23T12:45:45.948Z,100719.28
2023-05-23T12:48:13.502Z,100772.06
2023-05-23T12:50:41.081Z,100716.44
2023-05-23T12:53:10.048Z,100755.91
2023-05-23T12:55:37.745Z,100784.22
2023-05-23T12:58:05.438Z,100754.97
2023-05-23T13:00:33.061Z,100740.88
2023-05-23T13:03:00.640Z,100783.63
2023-05-23T13:05:28.165Z,100762.75
2023-05-23T13:07:58.439Z,100737.47
2023-05-23T13:10:29.431Z,100769.78
2023-05-23T13:12:58.646Z,100765.38
2023-05-23T13:15:26.184Z,100803.84
2023-05-23T13:17:53.713Z,100796.16
2023-05-23T13:20:21.376Z,100757.91
2023-05-23T13:22:49.198Z,100804.34
2023-05-23T13:25:16.919Z,100821.13
2023-05-23T13:27:49.229Z,100816.31
2023-05-23T13:30:17.227Z,100836.53
2023-05-23T13:32:48.593Z,100783.25
2023-05-23T13:35:17.991Z,100830.94
2023-05-23T13:37:46.113Z,100782.88
2023-05-23T13:40:18.412Z,100771.72
2023-05-23T13:42:49.615Z,100822.88
2023-05-23T13:45:17.477Z,100759.91
2023-05-23T13:47:45.226Z,100845.19
2023-05-23T13:50:12.757Z,100824.00
2023-05-23T13:52:43.106Z,100797.78
2023-05-23T13:55:15.258Z,100750.06
2023-05-23T13:57:43.125Z,100794.81
2023-05-23T14:00:13.595Z,100756.41
2023-05-23T14:02:44.530Z,100780.91
2023-05-23T14:05:15.216Z,100755.91
2023-05-23T14:07:44.311Z,100755.16
2023-05-23T14:10:12.272Z,100793.66
2023-05-23T14:12:40.408Z,100825.81
2023-05-23T14:15:13.753Z,100797.56
2023-05-23T14:17:44.894Z,100833.06
2023-05-23T14:20:15.627Z,100809.41
2023-05-23T14:22:50.365Z,100755.06
2023-05-23T14:25:18.759Z,100780.59
2023-05-23T14:27:46.636Z,100828.84
2023-05-23T14:30:15.888Z,100771.50
2023-05-23T14:32:43.982Z,100697.81
2023-05-23T14:35:12.153Z,100747.66
2023-05-23T14:37:39.812Z,100764.06
2023-05-23T14:40:08.946Z,100777.75
2023-05-23T14:42:36.970Z,100729.53
2023-05-23T14:45:04.960Z,100740.25
2023-05-23T14:47:34.284Z,100771.84
2023-05-23T14:50:02.435Z,100775.38
2023-05-23T14:52:30.000Z,100751.59
2023-05-23T14:54:57.650Z,100713.75
2023-05-23T14:57:25.504Z,100718.50
2023-05-23T14:59:53.088Z,100726.75
2023-05-23T15:02:20.817Z,100685.28
2023-05-23T15:04:49.828Z,100752.72
2023-05-23T15:07:17.476Z,100734.50
2023-05-23T15:09:45.206Z,100688.22
2023-05-23T15:12:12.922Z,100777.09
2023-05-23T15:14:40.650Z,100781.81
2023-05-23T15:17:08.409Z,100769.34
2023-05-23T15:19:36.697Z,100678.69
2023-05-23T15:22:05.846Z,100665.38
2023-05-23T15:24:35.010Z,100701.69
2023-05-23T15:27:18.800Z,100705.44
2023-05-23T15:29:48.136Z,100676.97
2023-05-23T15:32:15.997Z,100655.09
2023-05-23T15:34:43.932Z,100605.03
2023-05-23T15:37:13.179Z,100626.72
2023-05-23T15:39:41.424Z,100592.50
2023-05-23T15:42:08.969Z,100666.53
2023-05-23T15:44:36.617Z,100688.91
2023-05-23T15:47:07.030Z,100678.28
2023-05-23T15:49:35.272Z,100700.38
2023-05-23T15:52:02.967Z,100712.50
2023-05-23T15:54:32.160Z,100692.50
2023-05-23T15:56:59.695Z,100672.03
2023-05-23T15:59:27.407Z,100637.72
2023-05-23T16:01:54.925Z,100653.34
2023-05-23T16:04:22.417Z,100666.84
2023-05-23T16:06:50.267Z,100666.91
2023-05-23T16:09:17.970Z,100676.88
2023-05-23T16:11:46.966Z,100663.47
2023-05-23T16:14:14.750Z,100691.28
2023-05-23T16:16:42.396Z,100712.44
2023-05-23T16:19:11.775Z,100681.13
2023-05-23T16:21:39.393Z,100695.00
2023-05-23T16:24:07.273Z,100735.53
2023-05-23T16:26:34.967Z,100690.03
2023-05-23T16:29:04.380Z,100710.16
2023-05-23T16:31:32.159Z,100681.69
2023-05-23T16:33:59.825Z,100668.41
2023-05-23T16:36:27.677Z,100696.69
2023-05-23T16:38:55.873Z,100713.78
2023-05-23T16:41:25.968Z,100642.69
2023-05-23T16:43:53.875Z,100612.75
2023-05-23T16:46:23.167Z,100636.25
2023-05-23T16:48:50.782Z,100721.16
2023-05-23T16:51:18.275Z,100706.53
2023-05-23T16:53:45.929Z,100640.47
2023-05-23T16:56:14.083Z,100711.19
2023-05-23T16:58:42.293Z,100684.59
2023-05-23T17:01:10.467Z,100695.47
2023-05-23T17:03:42.828Z,100716.25
2023-05-23T17:06:15.589Z,100654.63
2023-05-23T17:08:48.040Z,100669.13
2023-05-23T17:11:15.717Z,100651.75
2023-05-23T17:13:43.672Z,100686.66
2023-05-23T17:16:14.452Z,100689.91
2023-05-23T17:18:43.991Z,100701.38
2023-05-23T17:21:14.018Z,100619.78
2023-05-23T17:23:44.360Z,100655.00
2023-05-23T17:26:12.611Z,100649.94
2023-05-23T17:28:40.091Z,100718.13
2023-05-23T17:31:09.560Z,100627.72
2023-05-23T17:33:37.216Z,100735.50
2023-05-23T17:36:12.272Z,100728.28
2023-05-23T17:38:53.422Z,100635.66
2023-05-23T17:41:27.438Z,100633.00
2023-05-23T17:44:11.316Z,100646.88
2023-05-23T17:46:56.515Z,100699.53
2023-05-23T17:49:24.356Z,100669.16
2023-05-23T17:52:03.692Z,100707.31
2023-05-23T17:54:33.202Z,100695.25
2023-05-23T17:57:00.813Z,100693.88
2023-05-23T17:59:28.437Z,100673.00
2023-05-23T18:01:56.041Z,100708.41
2023-05-23T18:04:25.353Z,100679.00
2023-05-23T18:06:53.243Z,100725.16
2023-05-23T18:09:22.306Z,100680.53
2023-05-23T18:11:49.830Z,100725.03
2023-05-23T18:14:17.486Z,100743.97
2023-05-23T18:16:45.448Z,100743.47
2023-05-23T18:19:13.152Z,100700.66
2023-05-23T18:21:40.932Z,100676.97
2023-05-23T18:24:08.523Z,100696.69
2023-05-23T18:26:40.472Z,100743.78
2023-05-23T18:29:08.448Z,100670.19
2023-05-23T18:31:36.212Z,100664.38
2023-05-23T18:34:06.945Z,100673.94
2023-05-23T18:36:36.350Z,100737.75
2023-05-23T18:39:04.424Z,100760.34
2023-05-23T18:41:35.099Z,100706.56
2023-05-23T18:44:10.690Z,100683.47
2023-05-23T18:46:38.722Z,100729.81
2023-05-23T18:49:06.221Z,100728.06
2023-05-23T18:51:34.071Z,100763.69
2023-05-23T18:54:01.764Z,100737.56
2023-05-23T18:56:29.532Z,100728.28
2023-05-23T18:58:57.127Z,100669.47
2023-05-23T19:01:26.408Z,100711.50
2023-05-23T19:03:55.743Z,100730.63
2023-05-23T19:06:23.784Z,100739.03
2023-05-23T19:08:51.623Z,100741.75
2023-05-23T19:11:19.261Z,100716.81
2023-05-23T19:13:46.971Z,100755.84
2023-05-23T19:16:14.688Z,100752.09
2023-05-23T19:18:46.183Z,100755.69
2023-05-23T19:21:14.470Z,100674.66
2023-05-23T19:23:44.037Z,100771.66
2023-05-23T19:26:11.749Z,100686.78
2023-05-23T19:28:41.873Z,100727.06
2023-05-23T19:31:11.591Z,100687.00
2023-05-23T19:33:39.428Z,100767.06
2023-05-23T19:36:09.142Z,100728.53
2023-05-23T19:38:37.041Z,100662.94
2023-05-23T19:41:04.558Z,100749.03
2023-05-23T19:43:32.637Z,100672.28
2023-05-23T19:46:00.269Z,100759.69
2023-05-23T19:48:27.998Z,100691.09
2023-05-23T19:50:55.862Z,100754.22
2023-05-23T19:53:25.093Z,100729.78
2023-05-23T19:55:52.786Z,100697.38
2023-05-23T19:58:20.479Z,100717.38
2023-05-23T20:00:48.077Z,100708.09
2023-05-23T20:03:15.852Z,100668.84
2023-05-23T20:05:44.042Z,100658.13
2023-05-23T20:08:11.858Z,100747.38
2023-05-23T20:10:43.785Z,100721.66
2023-05-23T20:13:14.632Z,100716.72
2023-05-23T20:15:42.282Z,100713.53
2023-05-23T20:18:10.076Z,100733.53
2023-05-23T20:20:44.041Z,100671.00
2023-05-23T20:23:11.681Z,100745.50
2023-05-23T20:25:43.582Z,100736.03
2023-05-23T20:28:11.296Z,100748.66
2023-05-23T20:30:45.247Z,100702.06
2023-05-23T20:33:16.156Z,100717.97
2023-05-23T20:35:46.805Z,100714.97
2023-05-23T20:38:15.077Z,100751.88
2023-05-23T20:40:54.140Z,100661.63
2023-05-23T20:43:30.758Z,100692.63
2023-05-23T20:46:01.423Z,100757.09
2023-05-23T20:48:31.737Z,100709.88
2023-05-23T20:50:59.643Z,100725.63
2023-05-23T20:53:33.947Z,100688.91
2023-05-23T20:56:06.429Z,100673.84
2023-05-23T20:58:34.373Z,100704.19
2023-05-23T21:01:02.104Z,100726.03
2023-05-23T21:03:29.613Z,100711.56
2023-05-23T21:05:57.235Z,100762.03
2023-05-23T21:08:24.974Z,100762.09
2023-05-23T21:10:54.718Z,100761.88
2023-05-23T21:13:27.289Z,100690.44
2023-05-23T21:16:05.307Z,100703.41
2023-05-23T21:18:33.314Z,100726.41
2023-05-23T21:21:02.116Z,100749.38
2023-05-23T21:23:30.089Z,100738.09
2023-05-23T21:25:58.103Z,100781.50
2023-05-23T21:28:27.267Z,100735.31
2023-05-23T21:30:55.221Z,100783.53
2023-05-23T21:33:26.641Z,100768.91
2023-05-23T21:35:59.231Z,100790.34
2023-05-23T21:38:28.428Z,100687.31
2023-05-23T21:40:55.809Z,100773.91
2023-05-23T21:43:23.988Z,100748.72
2023-05-23T21:45:53.217Z,100763.50
2023-05-23T21:48:20.814Z,100731.38
2023-05-23T21:50:48.530Z,100730.50
2023-05-23T21:53:16.082Z,100753.16
2023-05-23T21:55:43.698Z,100783.84
2023-05-23T21:58:11.547Z,100726.22
2023-05-23T22:00:40.072Z,100748.19
2023-05-23T22:03:09.587Z,100741.44
2023-05-23T22:05:38.508Z,100733.34
2023-05-23T22:08:06.575Z,100771.75
2023-05-23T22:10:34.466Z,100743.38
2023-05-23T22:13:01.932Z,100756.78
2023-05-23T22:15:29.837Z,100723.63
2023-05-23T22:17:57.431Z,100734.69
2023-05-23T22:20:26.481Z,100776.50
2023-05-23T22:22:54.446Z,100737.31
2023-05-23T22:25:22.178Z,100737.56
2023-05-23T22:27:49.646Z,100732.50
2023-05-23T22:30:17.626Z,100773.91
2023-05-23T22:32:45.170Z,100746.00
2023-05-23T22:35:12.611Z,100769.69
2023-05-23T22:37:41.942Z,100775.34
2023-05-23T22:40:09.931Z,100771.78
2023-05-23T22:42:37.364Z,100772.22
2023-05-23T22:45:05.884Z,100795.97
2023-05-23T22:47:33.432Z,100736.97
2023-05-23T22:50:01.052Z,100722.81
2023-05-23T22:52:28.940Z,100754.63
2023-05-23T22:54:57.812Z,100727.41
2023-05-23T22:57:25.306Z,100719.09
2023-05-23T22:59:53.050Z,100750.53
2023-05-23T23:02:20.514Z,100683.97
2023-05-23T23:04:48.153Z,100729.88
2023-05-23T23:07:15.998Z,100771.03
2023-05-23T23:09:43.576Z,100768.22
2023-05-23T23:12:12.558Z,100774.06
2023-05-23T23:14:40.425Z,100771.88
2023-05-23T23:17:08.038Z,100722.94
2023-05-23T23:19:35.473Z,100763.28
2023-05-23T23:22:03.148Z,100767.09
2023-05-23T23:24:30.685Z,100768.88
2023-05-23T23:26:58.119Z,100715.84
2023-05-23T23:29:27.379Z,100728.72
2023-05-23T23:31:55.031Z,100738.69
2023-05-23T23:34:22.462Z,100765.19
2023-05-23T23:36:50.110Z,100722.91
2023-05-23T23:39:17.708Z,100744.19
2023-05-23T23:41:45.121Z,100723.44
2023-05-23T23:44:12.920Z,100775.78
2023-05-23T23:46:41.992Z,100690.78
2023-05-23T23:49:09.425Z,100768.78
2023-05-23T23:51:37.541Z,100776.31
2023-05-23T23:54:05.101Z,100729.09
2023-05-23T23:56:32.903Z,100776.22
2023-05-23T23:59:00.649Z,100757.53
